Time;durP1;ratioP1;P1;durP2;ratioP2;P2;SDS_P1;SDS_P2;PMS_P1;PMS_P2;Temp;Humidity;BMP_temperature;BMP_pressure;BME280_temperature;BME280_humidity;BME280_pressure;Samples;Min_cycle;Max_cycle;Signal;HPM_P1;HPM_P2
2022/10/06 00:00:31;;;;;;;3.00;2.47;;;13.50;99.90;;;;;;5032748;28;20046;-54
2022/10/06 00:02:58;;;;;;;2.70;2.40;;;13.40;99.90;;;;;;5034665;28;20389;-55
2022/10/06 00:05:23;;;;;;;4.88;2.60;;;13.50;99.90;;;;;;5047808;28;20052;-54
2022/10/06 00:07:49;;;;;;;5.25;2.83;;;13.50;99.90;;;;;;5034296;28;20497;-56
2022/10/06 00:10:15;;;;;;;3.92;2.60;;;13.40;99.90;;;;;;5045405;28;20499;-54
2022/10/06 00:12:47;;;;;;;5.68;2.65;;;13.40;99.90;;;;;;5031307;28;20067;-55
2022/10/06 00:15:17;;;;;;;3.08;2.45;;;13.50;99.90;;;;;;5011799;28;20474;-54
2022/10/06 00:17:42;;;;;;;9.90;2.95;;;13.50;99.90;;;;;;5031155;28;20022;-52
2022/10/06 00:20:09;;;;;;;4.88;2.92;;;13.50;99.90;;;;;;5046902;28;20527;-53
2022/10/06 00:22:46;;;;;;;4.90;2.70;;;13.50;99.90;;;;;;5027417;28;20032;-52
2022/10/06 00:25:14;;;;;;;6.60;3.47;;;13.40;99.90;;;;;;5047120;28;20028;-55
2022/10/06 00:27:46;;;;;;;6.05;3.30;;;13.40;99.90;;;;;;5031180;28;20527;-54
2022/10/06 00:30:23;;;;;;;7.68;3.42;;;13.40;99.90;;;;;;5045537;28;20091;-53
2022/10/06 00:32:51;;;;;;;5.40;3.08;;;13.40;99.90;;;;;;5030689;28;20543;-55
2022/10/06 00:35:16;;;;;;;5.53;3.22;;;13.40;99.90;;;;;;5045873;28;20036;-52
2022/10/06 00:37:42;;;;;;;7.82;4.00;;;13.40;99.90;;;;;;5030771;28;20018;-53
2022/10/06 00:40:09;;;;;;;8.40;4.10;;;13.40;99.90;;;;;;5046928;28;20061;-53
2022/10/06 00:42:48;;;;;;;8.48;3.75;;;13.40;99.90;;;;;;5030705;28;20083;-55
2022/10/06 00:45:14;;;;;;;5.65;3.85;;;13.40;99.90;;;;;;5010517;28;20018;-54
2022/10/06 00:47:40;;;;;;;7.95;3.60;;;13.40;99.90;;;;;;5029553;28;20029;-54
2022/10/06 00:50:08;;;;;;;9.55;4.00;;;13.40;99.90;;;;;;5047341;28;20036;-56
2022/10/06 00:52:34;;;;;;;6.05;3.70;;;13.40;99.90;;;;;;5030337;28;20390;-52
2022/10/06 00:54:59;;;;;;;7.57;4.00;;;13.40;99.90;;;;;;5049534;28;20025;-55
2022/10/06 00:57:26;;;;;;;9.88;4.25;;;13.40;99.90;;;;;;5027932;28;20035;-54
2022/10/06 00:59:53;;;;;;;4.82;3.35;;;13.50;99.90;;;;;;5049480;28;20029;-55
2022/10/06 01:02:39;;;;;;;4.70;3.00;;;13.50;99.90;;;;;;5028398;28;20045;-54
2022/10/06 01:05:08;;;;;;;6.88;3.45;;;13.50;99.90;;;;;;5010493;28;20280;-54
2022/10/06 01:07:33;;;;;;;3.33;2.83;;;13.50;99.90;;;;;;5010468;28;20161;-53
2022/10/06 01:09:59;;;;;;;5.65;2.90;;;13.50;99.90;;;;;;5048307;28;20111;-51
2022/10/06 01:12:28;;;;;;;5.72;2.70;;;13.50;99.90;;;;;;5028681;28;20068;-54
2022/10/06 01:14:55;;;;;;;4.38;2.90;;;13.50;99.90;;;;;;5048500;28;20035;-53
2022/10/06 01:17:38;;;;;;;2.78;2.50;;;13.60;99.90;;;;;;5028242;28;20036;-55
2022/10/06 01:20:07;;;;;;;3.17;2.88;;;13.70;99.90;;;;;;5009973;28;20029;-53
2022/10/06 01:22:36;;;;;;;7.03;2.85;;;13.80;99.90;;;;;;5026287;28;20112;-51
2022/10/06 01:25:04;;;;;;;5.18;2.60;;;13.90;99.90;;;;;;5049785;28;20032;-52
2022/10/06 01:27:31;;;;;;;3.28;2.80;;;13.90;99.90;;;;;;5026490;28;20548;-53
2022/10/06 01:29:58;;;;;;;5.20;2.60;;;14.10;99.90;;;;;;5049113;28;20040;-53
2022/10/06 01:32:26;;;;;;;3.85;2.38;;;14.20;99.90;;;;;;5026838;28;20378;-49
2022/10/06 01:34:51;;;;;;;3.17;2.33;;;14.30;99.90;;;;;;5048975;28;20434;-51
2022/10/06 01:37:17;;;;;;;4.80;2.70;;;14.40;99.90;;;;;;5028075;28;20041;-51
2022/10/06 01:39:42;;;;;;;3.08;2.75;;;14.40;99.90;;;;;;5048423;28;20028;-53
2022/10/06 01:42:09;;;;;;;3.15;2.33;;;14.50;99.90;;;;;;5028232;28;20374;-52
2022/10/06 01:44:34;;;;;;;2.60;2.40;;;14.60;99.90;;;;;;5048643;28;20122;-52
2022/10/06 01:47:02;;;;;;;2.20;2.00;;;14.60;99.90;;;;;;5027867;28;20029;-51
2022/10/06 01:49:28;;;;;;;3.10;2.08;;;14.70;99.90;;;;;;5048653;28;20183;-49
2022/10/06 01:51:53;;;;;;;2.55;2.00;;;14.70;99.90;;;;;;5027971;28;20116;-53
2022/10/06 01:54:19;;;;;;;3.38;2.20;;;14.70;99.90;;;;;;5048110;28;20032;-55
2022/10/06 01:56:44;;;;;;;4.45;2.40;;;14.80;99.90;;;;;;5026583;28;20140;-53
2022/10/06 01:59:10;;;;;;;2.60;2.25;;;14.70;99.90;;;;;;5048290;28;20033;-51
2022/10/06 02:01:35;;;;;;;2.17;1.95;;;14.70;99.90;;;;;;5027788;28;20057;-50
2022/10/06 02:04:01;;;;;;;3.97;2.80;;;14.70;99.90;;;;;;5048153;28;20033;-55
2022/10/06 02:06:27;;;;;;;6.30;2.85;;;14.60;99.90;;;;;;5027752;28;20029;-54
2022/10/06 02:08:53;;;;;;;3.70;2.22;;;14.50;99.90;;;;;;5048444;28;20032;-54
2022/10/06 02:11:18;;;;;;;2.35;1.90;;;14.50;99.90;;;;;;5027512;28;20034;-49
2022/10/06 02:13:44;;;;;;;4.30;2.20;;;14.40;99.90;;;;;;5048028;28;20548;-54
2022/10/06 02:16:12;;;;;;;2.72;2.30;;;14.40;99.90;;;;;;5027664;28;20029;-55
2022/10/06 02:18:38;;;;;;;2.67;2.22;;;14.30;99.90;;;;;;5028960;28;20030;-54
2022/10/06 02:21:05;;;;;;;3.60;2.20;;;14.30;99.90;;;;;;5040372;28;20091;-52
2022/10/06 02:23:30;;;;;;;2.55;2.10;;;14.20;99.90;;;;;;5036308;28;20028;-52
2022/10/06 02:26:01;;;;;;;2.80;2.47;;;14.20;99.90;;;;;;5027590;28;20030;-60
2022/10/06 02:28:26;;;;;;;3.00;1.83;;;14.20;99.90;;;;;;5028761;28;20021;-60
2022/10/06 02:30:52;;;;;;;3.30;2.25;;;14.20;99.90;;;;;;5042159;28;20112;-60
2022/10/06 02:33:17;;;;;;;5.65;2.38;;;14.10;99.90;;;;;;5027891;28;20075;-61
2022/10/06 02:35:44;;;;;;;3.08;2.50;;;14.10;99.90;;;;;;5043288;28;20488;-61
2022/10/06 02:38:09;;;;;;;3.97;2.35;;;14.00;99.90;;;;;;5028625;28;20100;-60
2022/10/06 02:40:35;;;;;;;2.65;2.45;;;14.00;99.90;;;;;;5044523;28;20615;-61
2022/10/06 02:43:00;;;;;;;4.15;2.50;;;13.90;99.90;;;;;;5028506;28;20706;-60
2022/10/06 02:45:26;;;;;;;3.25;2.35;;;13.90;99.90;;;;;;5047836;28;20033;-60
2022/10/06 02:47:53;;;;;;;2.13;1.95;;;13.90;99.90;;;;;;5008920;28;20025;-61
2022/10/06 02:50:19;;;;;;;2.40;2.10;;;13.90;99.90;;;;;;5047235;28;20513;-61
2022/10/06 02:52:45;;;;;;;3.28;2.47;;;13.90;99.90;;;;;;5026997;28;20038;-61
2022/10/06 02:55:11;;;;;;;2.47;2.28;;;14.00;99.90;;;;;;5047704;28;20024;-60
2022/10/06 02:57:36;;;;;;;4.07;2.38;;;14.00;99.90;;;;;;5027143;28;20033;-60
2022/10/06 03:00:06;;;;;;;2.60;2.10;;;14.10;99.90;;;;;;5047109;28;20503;-60
2022/10/06 03:02:31;;;;;;;3.08;2.05;;;14.10;99.90;;;;;;5025267;28;20049;-61
2022/10/06 03:04:57;;;;;;;3.13;2.22;;;14.10;99.90;;;;;;5046965;28;20043;-61
2022/10/06 03:07:23;;;;;;;3.15;2.40;;;14.10;99.90;;;;;;5026122;28;20037;-61
2022/10/06 03:09:48;;;;;;;3.17;2.38;;;14.10;99.90;;;;;;5045906;28;20340;-62
2022/10/06 03:12:13;;;;;;;3.80;2.58;;;14.00;99.90;;;;;;5026143;28;20048;-61
2022/10/06 03:14:39;;;;;;;4.78;2.83;;;14.00;99.90;;;;;;5047647;28;20025;-61
2022/10/06 03:17:05;;;;;;;4.15;2.17;;;14.00;99.90;;;;;;5026726;28;20037;-60
2022/10/06 03:19:30;;;;;;;3.55;2.80;;;14.00;99.90;;;;;;5047255;28;20032;-61
2022/10/06 03:21:56;;;;;;;3.40;2.50;;;14.00;99.90;;;;;;5025796;28;20476;-60
2022/10/06 03:24:21;;;;;;;3.55;2.45;;;14.00;99.90;;;;;;5043259;28;20033;-61
2022/10/06 03:26:47;;;;;;;3.20;2.50;;;14.10;99.90;;;;;;5036440;28;20037;-61
2022/10/06 03:29:13;;;;;;;3.60;2.70;;;14.10;99.90;;;;;;5028442;28;20393;-60
2022/10/06 03:31:39;;;;;;;5.63;2.50;;;14.20;99.90;;;;;;5045675;28;20096;-61
2022/10/06 03:34:05;;;;;;;3.53;2.35;;;14.30;99.90;;;;;;5028381;28;20072;-52
2022/10/06 03:36:32;;;;;;;3.10;2.65;;;14.40;99.90;;;;;;5045298;28;20021;-53
2022/10/06 03:38:59;;;;;;;4.97;2.90;;;14.40;99.90;;;;;;5047810;28;20032;-54
2022/10/06 03:41:30;;;;;;;4.47;2.13;;;14.50;99.90;;;;;;5032959;28;20025;-54
2022/10/06 03:43:57;;;;;;;3.38;2.78;;;14.50;99.90;;;;;;5041049;28;20072;-52
2022/10/06 03:46:25;;;;;;;3.92;2.45;;;14.60;99.90;;;;;;5035042;28;20028;-53
2022/10/06 03:48:51;;;;;;;3.40;2.38;;;14.60;99.90;;;;;;5050784;28;20036;-55
2022/10/06 03:51:20;;;;;;;3.50;2.70;;;14.70;99.90;;;;;;5027046;28;20068;-54
2022/10/06 03:53:47;;;;;;;2.83;2.30;;;14.70;99.90;;;;;;5051145;28;20032;-53
2022/10/06 03:56:15;;;;;;;4.22;2.20;;;14.80;99.90;;;;;;5033426;28;20025;-52
2022/10/06 03:58:44;;;;;;;2.92;2.72;;;14.80;99.90;;;;;;5051611;28;20056;-52
2022/10/06 04:01:16;;;;;;;2.92;2.40;;;14.80;99.90;;;;;;5033280;28;20054;-53
2022/10/06 04:03:42;;;;;;;3.97;2.47;;;14.90;99.90;;;;;;5051382;28;20381;-52
2022/10/06 04:06:12;;;;;;;4.55;2.58;;;14.90;99.90;;;;;;5033156;28;20029;-51
2022/10/06 04:08:39;;;;;;;2.72;2.22;;;14.90;99.90;;;;;;5051479;28;20032;-53
2022/10/06 04:11:11;;;;;;;3.60;2.17;;;15.00;99.90;;;;;;5032373;28;20037;-52
2022/10/06 04:13:37;;;;;;;2.40;2.20;;;15.00;99.90;;;;;;5051231;28;20045;-52
2022/10/06 04:16:15;;;;;;;3.63;2.20;;;15.00;99.90;;;;;;5032055;28;20312;-55
2022/10/06 04:18:43;;;;;;;4.68;2.80;;;15.10;99.90;;;;;;5051315;28;20032;-53
2022/10/06 04:21:09;;;;;;;2.75;2.22;;;15.10;99.90;;;;;;5031877;28;20017;-54
2022/10/06 04:23:35;;;;;;;4.82;3.00;;;15.10;99.90;;;;;;5033326;28;20040;-52
2022/10/06 04:26:05;;;;;;;3.58;2.33;;;15.20;99.90;;;;;;5048192;28;20090;-53
2022/10/06 04:28:31;;;;;;;2.85;2.25;;;15.10;99.90;;;;;;5031325;28;20021;-52
2022/10/06 04:30:57;;;;;;;4.05;2.22;;;15.20;99.90;;;;;;5048222;28;20499;-55
2022/10/06 04:33:23;;;;;;;3.70;2.55;;;15.20;99.90;;;;;;5050867;28;20447;-54
2022/10/06 04:35:57;;;;;;;2.90;2.00;;;15.20;99.90;;;;;;5029018;28;20129;-52
2022/10/06 04:38:22;;;;;;;4.47;2.50;;;15.20;99.90;;;;;;5050772;28;20480;-53
2022/10/06 04:40:48;;;;;;;4.03;2.35;;;15.20;99.90;;;;;;5031254;28;20029;-55
2022/10/06 04:43:13;;;;;;;2.33;2.08;;;15.20;99.90;;;;;;5048555;28;20041;-55
2022/10/06 04:45:39;;;;;;;3.63;1.90;;;15.20;99.90;;;;;;5031421;28;20041;-54
2022/10/06 04:48:04;;;;;;;3.28;2.30;;;15.20;99.90;;;;;;5029201;28;20576;-50
2022/10/06 04:50:30;;;;;;;3.03;2.05;;;15.20;99.90;;;;;;5048435;28;20025;-56
2022/10/06 04:52:55;;;;;;;2.97;2.03;;;15.20;99.90;;;;;;5032270;28;20041;-52
2022/10/06 04:55:21;;;;;;;1.55;1.27;;;15.20;99.90;;;;;;5027755;28;20401;-49
2022/10/06 04:57:46;;;;;;;1.60;1.40;;;15.20;99.90;;;;;;5026442;28;20262;-51
2022/10/06 05:00:25;;;;;;;2.65;1.10;;;15.20;99.90;;;;;;5035647;28;20388;-56
2022/10/06 05:02:54;;;;;;;1.60;1.20;;;15.30;99.90;;;;;;5023848;28;20087;-56
2022/10/06 05:05:20;;;;;;;1.85;1.10;;;15.30;99.90;;;;;;5044571;28;20087;-50
2022/10/06 05:07:46;;;;;;;1.50;1.00;;;15.30;99.90;;;;;;5029682;28;20029;-53
2022/10/06 05:10:12;;;;;;;1.27;1.10;;;15.30;99.90;;;;;;5044537;28;20033;-50
2022/10/06 05:12:37;;;;;;;2.05;1.10;;;15.40;99.90;;;;;;5027057;28;20030;-53
2022/10/06 05:15:03;;;;;;;1.30;0.90;;;15.40;99.90;;;;;;5048162;28;20065;-51
2022/10/06 05:17:29;;;;;;;0.95;0.88;;;15.40;99.90;;;;;;5027645;28;20064;-51
2022/10/06 05:19:54;;;;;;;1.38;0.80;;;15.40;99.90;;;;;;5048197;28;20028;-48
2022/10/06 05:22:20;;;;;;;1.85;1.17;;;15.30;99.90;;;;;;5028907;28;20041;-53
2022/10/06 05:24:45;;;;;;;0.73;0.60;;;15.40;99.90;;;;;;5045593;28;20029;-51
2022/10/06 05:27:11;;;;;;;1.60;0.70;;;15.30;99.90;;;;;;5037290;28;20033;-54
2022/10/06 05:29:37;;;;;;;0.80;0.80;;;15.30;99.90;;;;;;5029000;28;20624;-53
2022/10/06 05:32:03;;;;;;;1.85;0.90;;;15.30;99.90;;;;;;5045801;28;20112;-49
2022/10/06 05:34:29;;;;;;;1.00;0.70;;;15.40;99.90;;;;;;5029026;28;20033;-50
2022/10/06 05:36:54;;;;;;;1.55;0.65;;;15.40;99.90;;;;;;5045941;28;20382;-49
2022/10/06 05:39:20;;;;;;;0.95;0.73;;;15.40;99.90;;;;;;5048315;28;20029;-54
2022/10/06 05:41:45;;;;;;;1.70;0.70;;;15.40;99.90;;;;;;5033007;28;20987;-50
2022/10/06 05:44:12;;;;;;;1.98;1.30;;;15.40;99.90;;;;;;5048572;28;20025;-49
2022/10/06 05:46:37;;;;;;;3.10;1.08;;;15.40;99.30;;;;;;5030407;28;20017;-53
2022/10/06 05:49:08;;;;;;;1.45;0.85;;;15.40;99.30;;;;;;5048242;28;20031;-51
2022/10/06 05:51:34;;;;;;;1.95;0.70;;;15.40;96.30;;;;;;5014661;28;20518;-50
2022/10/06 05:54:00;;;;;;;1.13;0.60;;;15.40;93.60;;;;;;5047981;28;20029;-50
2022/10/06 05:56:28;;;;;;;1.58;0.60;;;15.50;95.60;;;;;;5029769;28;20033;-50
2022/10/06 05:58:55;;;;;;;0.47;0.47;;;15.40;96.60;;;;;;5048117;28;20029;-50
2022/10/06 06:01:26;;;;;;;0.52;0.45;;;15.50;96.00;;;;;;5032100;28;20045;-49
2022/10/06 06:04:01;;;;;;;2.28;0.60;;;15.50;91.50;;;;;;5028835;28;20029;-53
2022/10/06 06:06:35;;;;;;;1.05;0.43;;;15.50;93.00;;;;;;5023620;28;20112;-53
2022/10/06 06:09:05;;;;;;;0.30;0.30;;;15.50;93.80;;;;;;5029959;28;20221;-50
2022/10/06 06:11:32;;;;;;;0.60;0.35;;;15.50;92.00;;;;;;5028755;28;20255;-53
2022/10/06 06:14:00;;;;;;;1.65;0.32;;;15.50;91.80;;;;;;5047676;28;20041;-51
2022/10/06 06:16:29;;;;;;;0.30;0.30;;;15.50;87.80;;;;;;5028243;28;20034;-49
2022/10/06 06:18:55;;;;;;;1.23;0.55;;;15.50;89.30;;;;;;5047871;28;20206;-51
2022/10/06 06:21:21;;;;;;;1.20;0.35;;;15.50;88.80;;;;;;5027720;28;20079;-52
2022/10/06 06:23:48;;;;;;;0.98;0.57;;;15.60;88.20;;;;;;5030856;28;20254;-50
2022/10/06 06:26:28;;;;;;;3.25;0.52;;;16.00;86.90;;;;;;5044666;28;20120;-51
2022/10/06 06:28:59;;;;;;;0.40;0.38;;;16.30;83.30;;;;;;5047566;28;20027;-51
2022/10/06 06:31:26;;;;;;;0.75;0.40;;;17.30;83.60;;;;;;5009631;28;20029;-50
2022/10/06 06:33:56;;;;;;;0.45;0.30;;;18.40;76.10;;;;;;5047295;28;20108;-48
2022/10/06 06:36:24;;;;;;;0.50;0.40;;;19.40;71.20;;;;;;5026520;28;20033;-48
2022/10/06 06:38:52;;;;;;;2.92;0.40;;;20.30;69.10;;;;;;5047403;28;20017;-48
2022/10/06 06:41:18;;;;;;;2.22;0.82;;;21.10;61.80;;;;;;5026199;28;20029;-48
2022/10/06 06:43:44;;;;;;;1.38;0.43;;;21.60;58.90;;;;;;5045805;28;20511;-46
2022/10/06 06:46:10;;;;;;;0.88;0.40;;;21.90;52.00;;;;;;5027881;28;20064;-47
2022/10/06 06:48:36;;;;;;;0.50;0.28;;;22.10;53.20;;;;;;5044865;28;20037;-48
2022/10/06 06:51:02;;;;;;;5.88;0.40;;;21.80;52.60;;;;;;5027234;28;20337;-47
2022/10/06 06:53:28;;;;;;;2.28;0.47;;;21.80;52.90;;;;;;5027341;28;20635;-48
2022/10/06 06:55:53;;;;;;;1.70;0.40;;;21.80;49.10;;;;;;5041516;28;20115;-47
2022/10/06 06:58:20;;;;;;;0.52;0.32;;;21.60;43.00;;;;;;5041707;28;20028;-48
2022/10/06 07:00:46;;;;;;;0.63;0.50;;;21.60;51.90;;;;;;5031988;28;20249;-49
2022/10/06 07:03:14;;;;;;;2.88;0.40;;;21.90;54.40;;;;;;5045927;28;20559;-46
2022/10/06 07:05:40;;;;;;;2.22;0.63;;;22.10;49.50;;;;;;5028395;28;20026;-51
2022/10/06 07:08:09;;;;;;;1.02;0.30;;;22.20;49.10;;;;;;5030525;28;20041;-50
2022/10/06 07:10:36;;;;;;;1.80;0.57;;;22.20;46.90;;;;;;5047611;28;20171;-48
2022/10/06 07:13:02;;;;;;;1.25;0.60;;;21.90;50.40;;;;;;5026286;28;20577;-47
2022/10/06 07:26:29;;;;;;;0.63;0.40;;;21.20;51.80;;;;;;5010682;28;20095;-49
2022/10/06 07:28:58;;;;;;;3.03;0.50;;;21.30;48.90;;;;;;5051867;28;20538;-48
2022/10/06 07:31:26;;;;;;;1.63;0.80;;;21.40;50.40;;;;;;5029994;28;20037;-51
2022/10/06 07:33:52;;;;;;;3.00;0.98;;;21.30;50.60;;;;;;5011065;28;20030;-51
2022/10/06 07:36:19;;;;;;;2.92;0.50;;;21.00;50.40;;;;;;5049958;28;20060;-50
2022/10/06 07:38:46;;;;;;;2.92;0.63;;;20.80;50.50;;;;;;5029771;28;20482;-50
2022/10/06 07:41:11;;;;;;;2.35;0.50;;;20.70;49.30;;;;;;5050970;28;20116;-51
2022/10/06 07:43:37;;;;;;;1.70;0.77;;;20.70;50.10;;;;;;5030274;28;20446;-49
2022/10/06 07:46:02;;;;;;;2.30;0.70;;;20.40;50.80;;;;;;5050456;28;20560;-48
2022/10/06 07:48:28;;;;;;;0.98;0.60;;;20.30;51.90;;;;;;5030079;28;20060;-47
2022/10/06 07:50:53;;;;;;;2.13;0.45;;;20.40;52.60;;;;;;5050633;28;20067;-50
2022/10/06 07:53:19;;;;;;;2.53;0.60;;;20.40;52.70;;;;;;5028448;28;20037;-48
2022/10/06 07:55:46;;;;;;;1.70;0.60;;;20.30;50.70;;;;;;5050354;28;20044;-49
2022/10/06 07:58:17;;;;;;;2.53;0.60;;;20.20;48.70;;;;;;5029647;28;20030;-47
2022/10/06 08:00:44;;;;;;;2.60;0.90;;;20.20;45.20;;;;;;5018629;28;20056;-49
2022/10/06 08:03:11;;;;;;;3.08;0.70;;;20.10;47.40;;;;;;5049095;28;20029;-48
2022/10/06 08:05:37;;;;;;;2.47;0.75;;;20.20;51.50;;;;;;5031420;28;20122;-48
2022/10/06 08:08:03;;;;;;;1.33;0.68;;;20.20;51.30;;;;;;5035847;28;20247;-48
2022/10/06 08:10:29;;;;;;;3.75;0.68;;;20.20;43.90;;;;;;5049997;28;20029;-50
2022/10/06 08:12:55;;;;;;;1.88;0.70;;;20.20;50.50;;;;;;5029718;28;20096;-48
2022/10/06 08:15:20;;;;;;;3.50;1.05;;;20.10;46.70;;;;;;5049799;28;20025;-48
2022/10/06 08:17:46;;;;;;;5.28;1.02;;;19.90;46.40;;;;;;5039287;28;20328;-53
2022/10/06 08:20:12;;;;;;;5.18;0.90;;;19.80;43.70;;;;;;5031381;28;20036;-48
2022/10/06 08:22:38;;;;;;;3.63;0.70;;;19.60;44.30;;;;;;5044217;28;20029;-47
2022/10/06 08:25:08;;;;;;;3.22;0.95;;;19.60;46.40;;;;;;5031041;28;20032;-47
2022/10/06 08:27:35;;;;;;;2.25;0.70;;;19.70;47.20;;;;;;5048227;28;20040;-47
2022/10/06 08:30:02;;;;;;;2.88;0.85;;;19.80;46.60;;;;;;5030598;28;20033;-47
2022/10/06 08:32:27;;;;;;;3.08;0.70;;;19.70;44.30;;;;;;5047163;28;20455;-50
2022/10/06 08:34:53;;;;;;;3.83;0.90;;;19.70;46.00;;;;;;5050551;28;20013;-48
2022/10/06 08:37:25;;;;;;;2.25;0.80;;;19.80;46.00;;;;;;5034480;28;20025;-52
2022/10/06 08:39:51;;;;;;;2.10;0.68;;;19.90;43.40;;;;;;5050515;28;20029;-47
2022/10/06 08:42:26;;;;;;;1.67;0.63;;;20.00;45.10;;;;;;5034017;28;20245;-48
2022/10/06 08:44:59;;;;;;;4.13;1.10;;;20.20;43.20;;;;;;5050376;28;20021;-49
2022/10/06 08:47:28;;;;;;;1.67;0.68;;;20.20;41.00;;;;;;5021113;28;20017;-51
2022/10/06 08:49:55;;;;;;;3.45;1.02;;;20.00;42.60;;;;;;5050542;28;20143;-49
2022/10/06 08:53:08;;;;;;;2.13;0.73;;;20.00;41.50;;;;;;5033896;28;20040;-51
2022/10/06 08:56:17;;;;;;;2.50;0.40;;;20.10;39.20;;;;;;5008071;28;20073;-49
2022/10/06 08:58:56;;;;;;;1.88;0.70;;;20.30;39.00;;;;;;5025375;28;20036;-48
2022/10/06 09:01:22;;;;;;;2.25;0.70;;;20.60;38.70;;;;;;5040068;28;20084;-53
2022/10/06 09:03:51;;;;;;;2.65;1.15;;;20.70;40.70;;;;;;5030135;28;20037;-49
2022/10/06 09:06:28;;;;;;;2.08;0.90;;;20.70;40.00;;;;;;5049303;28;20079;-51
2022/10/06 09:08:58;;;;;;;0.90;0.40;;;20.70;39.40;;;;;;5026380;28;20034;-51
2022/10/06 09:11:56;;;;;;;2.42;0.90;;;20.80;36.90;;;;;;5010148;28;20037;-52
2022/10/06 09:14:32;;;;;;;2.53;1.08;;;20.80;35.00;;;;;;5005802;28;20053;-50
2022/10/06 09:17:04;;;;;;;1.05;0.50;;;20.70;34.00;;;;;;5011480;28;20045;-49
2022/10/06 09:19:32;;;;;;;4.80;0.93;;;20.40;34.70;;;;;;5049499;28;20036;-50
2022/10/06 09:21:59;;;;;;;2.13;0.90;;;20.20;32.60;;;;;;5029591;28;20032;-48
2022/10/06 09:24:38;;;;;;;2.05;0.60;;;20.00;35.80;;;;;;5042534;28;20025;-47
2022/10/06 09:27:19;;;;;;;2.42;0.88;;;19.80;34.70;;;;;;5029537;28;20091;-49
2022/10/06 09:29:47;;;;;;;2.05;0.85;;;19.50;35.50;;;;;;5049413;28;20033;-47
2022/10/06 09:32:13;;;;;;;5.05;0.95;;;19.40;36.60;;;;;;5030854;28;20032;-47
2022/10/06 09:34:55;;;;;;;2.65;0.77;;;19.10;37.10;;;;;;5049559;28;20025;-47
2022/10/06 09:37:22;;;;;;;2.25;0.80;;;19.00;37.50;;;;;;5016221;28;20025;-46
2022/10/06 09:39:49;;;;;;;2.95;0.80;;;19.00;37.90;;;;;;5049105;28;20027;-49
2022/10/06 09:42:22;;;;;;;4.43;1.20;;;19.00;38.20;;;;;;5030479;28;20135;-48
2022/10/06 09:44:51;;;;;;;3.35;1.10;;;19.00;37.30;;;;;;5049045;28;20045;-48
2022/10/06 09:47:33;;;;;;;3.97;1.17;;;19.20;36.70;;;;;;5030925;28;20224;-50
2022/10/06 09:50:11;;;;;;;5.47;0.80;;;19.10;36.00;;;;;;5048934;28;20060;-47
2022/10/06 09:52:41;;;;;;;4.60;1.20;;;19.30;37.20;;;;;;5033076;28;20033;-52
2022/10/06 09:55:16;;;;;;;2.58;0.80;;;19.60;35.80;;;;;;5048932;28;20065;-47
2022/10/06 09:57:50;;;;;;;3.60;1.05;;;19.60;34.30;;;;;;5033751;28;20232;-49
2022/10/06 10:00:37;;;;;;;6.75;0.80;;;19.80;33.90;;;;;;5048414;28;20037;-46
2022/10/06 10:03:06;;;;;;;3.47;0.98;;;19.90;33.60;;;;;;5025877;28;20119;-47
2022/10/06 10:05:34;;;;;;;3.40;1.08;;;19.80;33.80;;;;;;5028760;28;20057;-49
2022/10/06 10:08:08;;;;;;;2.88;0.88;;;19.60;33.70;;;;;;5046276;28;20041;-47
2022/10/06 10:10:35;;;;;;;3.28;1.02;;;19.60;33.90;;;;;;5008991;28;20422;-51
2022/10/06 10:13:02;;;;;;;5.35;0.85;;;19.50;34.20;;;;;;5045602;28;20036;-50
2022/10/06 10:15:38;;;;;;;5.22;1.10;;;19.50;33.80;;;;;;5028890;28;20025;-49
2022/10/06 10:18:11;;;;;;;3.58;1.02;;;19.50;32.90;;;;;;5025046;28;20226;-48
2022/10/06 10:20:49;;;;;;;3.85;0.98;;;19.40;33.50;;;;;;5008893;28;20041;-48
2022/10/06 10:23:28;;;;;;;1.67;0.90;;;19.40;33.70;;;;;;5023710;28;20029;-49
2022/10/06 10:26:18;;;;;;;6.50;1.10;;;19.50;34.10;;;;;;5008909;28;20041;-48
2022/10/06 10:28:58;;;;;;;2.28;0.80;;;19.40;33.70;;;;;;5021042;28;20599;-47
2022/10/06 10:31:32;;;;;;;6.28;0.93;;;19.50;33.30;;;;;;5008788;28;20030;-49
2022/10/06 10:34:31;;;;;;;3.30;1.10;;;19.50;33.00;;;;;;5022663;28;20393;-50
2022/10/06 10:37:27;;;;;;;6.05;1.38;;;19.50;32.60;;;;;;5008724;28;20029;-47
2022/10/06 10:39:59;;;;;;;6.07;1.05;;;19.50;32.80;;;;;;5002243;28;20045;-48
2022/10/06 10:42:46;;;;;;;4.05;0.90;;;19.40;32.90;;;;;;5012778;28;20041;-49
2022/10/06 10:45:21;;;;;;;3.67;1.00;;;19.30;33.50;;;;;;4998195;28;20060;-51
2022/10/06 10:47:48;;;;;;;3.92;1.08;;;19.10;32.60;;;;;;5017099;28;20145;-46
2022/10/06 10:50:27;;;;;;;4.63;1.00;;;19.00;31.40;;;;;;5047853;28;20105;-51
2022/10/06 10:52:59;;;;;;;4.40;0.98;;;18.80;31.10;;;;;;5019511;28;20037;-48
2022/10/06 10:55:39;;;;;;;3.10;1.00;;;18.60;31.30;;;;;;5047810;28;20036;-47
2022/10/06 10:58:16;;;;;;;6.43;1.35;;;18.50;32.30;;;;;;5022191;28;20040;-47
2022/10/06 11:00:45;;;;;;;2.67;1.13;;;18.50;33.10;;;;;;5015230;28;20091;-49
2022/10/06 11:03:11;;;;;;;3.15;0.70;;;18.40;33.20;;;;;;5045983;28;20389;-50
2022/10/06 11:05:57;;;;;;;5.60;1.13;;;18.30;33.20;;;;;;5028444;28;20032;-52
2022/10/06 11:08:44;;;;;;;5.68;1.02;;;18.20;33.10;;;;;;5026914;28;20032;-47
2022/10/06 11:11:19;;;;;;;1.25;0.70;;;18.20;33.10;;;;;;5008323;28;20109;-50
2022/10/06 11:13:49;;;;;;;3.42;0.75;;;18.30;33.20;;;;;;5032717;28;20508;-47
2022/10/06 11:16:41;;;;;;;3.42;1.00;;;18.30;33.60;;;;;;5007896;28;20030;-47
2022/10/06 11:19:42;;;;;;;5.88;1.20;;;18.30;34.10;;;;;;5022336;28;20045;-46
2022/10/06 11:22:16;;;;;;;4.15;1.25;;;18.40;33.40;;;;;;5008317;28;20030;-48
2022/10/06 11:24:42;;;;;;;1.67;0.95;;;18.40;33.50;;;;;;5008061;28;20073;-48
2022/10/06 11:27:31;;;;;;;4.72;1.05;;;18.50;33.00;;;;;;5046268;28;20056;-46
2022/10/06 11:30:12;;;;;;;3.88;0.93;;;18.50;31.60;;;;;;5047952;28;20441;-46
2022/10/06 11:33:00;;;;;;;1.98;0.82;;;18.50;32.60;;;;;;5013192;28;20045;-46
2022/10/06 11:35:32;;;;;;;5.28;0.80;;;18.40;32.60;;;;;;5047751;28;20025;-45
2022/10/06 11:38:00;;;;;;;4.30;1.20;;;18.30;32.80;;;;;;5018174;28;20047;-45
2022/10/06 11:40:49;;;;;;;1.95;0.90;;;18.30;32.30;;;;;;5047653;28;20041;-45
2022/10/06 11:43:39;;;;;;;4.60;1.45;;;18.40;32.00;;;;;;5022196;28;20114;-45
2022/10/06 11:46:36;;;;;;;3.67;0.90;;;18.40;31.50;;;;;;5007931;28;20030;-46
2022/10/06 11:49:32;;;;;;;2.58;0.65;;;18.40;32.40;;;;;;5034710;28;20044;-46
2022/10/06 11:52:07;;;;;;;1.63;0.70;;;18.40;32.70;;;;;;5027759;28;20053;-45
2022/10/06 11:54:38;;;;;;;5.00;1.30;;;18.40;32.00;;;;;;5026196;28;20079;-45
2022/10/06 11:57:22;;;;;;;3.17;0.90;;;18.50;32.10;;;;;;5007737;28;20034;-45
2022/10/06 12:00:03;;;;;;;2.65;0.80;;;18.50;31.90;;;;;;5007934;28;20432;-46
2022/10/06 12:02:31;;;;;;;6.43;1.00;;;18.60;32.20;;;;;;5043696;28;20052;-45
2022/10/06 12:05:09;;;;;;;3.25;1.08;;;18.70;33.20;;;;;;5048486;28;20472;-47
2022/10/06 12:07:53;;;;;;;3.83;0.95;;;18.80;32.30;;;;;;5031696;28;20034;-46
2022/10/06 12:10:27;;;;;;;2.22;0.90;;;18.90;30.30;;;;;;5051176;28;20639;-49
2022/10/06 12:13:18;;;;;;;3.22;0.80;;;19.00;30.50;;;;;;5034107;28;20528;-46
2022/10/06 12:15:51;;;;;;;3.67;1.20;;;18.90;30.00;;;;;;5051338;28;20060;-50
2022/10/06 12:18:28;;;;;;;4.43;0.88;;;18.80;30.40;;;;;;5023081;28;20555;-47
2022/10/06 12:21:18;;;;;;;3.17;0.75;;;18.70;30.30;;;;;;5011494;28;20116;-45
2022/10/06 12:23:51;;;;;;;2.55;0.95;;;18.60;31.00;;;;;;5021321;28;20025;-52
2022/10/06 12:26:25;;;;;;;1.92;0.70;;;18.60;31.10;;;;;;5011364;28;20034;-47
2022/10/06 12:29:14;;;;;;;4.38;0.80;;;18.60;31.10;;;;;;5033129;28;20031;-48
2022/10/06 12:31:46;;;;;;;2.92;0.70;;;18.50;31.20;;;;;;5011625;28;20068;-47
2022/10/06 12:34:41;;;;;;;2.53;1.00;;;18.50;31.70;;;;;;5034299;28;20505;-52
2022/10/06 12:37:32;;;;;;;3.58;0.60;;;18.40;31.90;;;;;;5041279;28;20033;-52
2022/10/06 12:40:36;;;;;;;3.47;0.85;;;18.30;32.20;;;;;;5011355;28;20065;-52
2022/10/06 12:43:13;;;;;;;2.70;1.05;;;18.40;32.00;;;;;;5039136;28;20100;-47
2022/10/06 12:46:10;;;;;;;3.00;0.80;;;18.50;32.90;;;;;;5041199;28;20032;-47
2022/10/06 12:48:36;;;;;;;;;;;18.60;32.60;;;;;;5027282;28;20029;-48
2022/10/06 12:51:11;;;;;;;3.03;0.70;;;18.60;31.70;;;;;;5030262;28;20331;-47
2022/10/06 12:53:58;;;;;;;3.45;0.88;;;18.60;32.00;;;;;;5026658;28;20036;-51
2022/10/06 12:56:33;;;;;;;4.70;0.90;;;18.60;30.70;;;;;;5010033;28;20425;-51
2022/10/06 12:59:19;;;;;;;3.17;0.60;;;18.50;31.40;;;;;;5020262;28;20097;-49
2022/10/06 13:01:45;;;;;;;3.25;1.10;;;18.50;31.50;;;;;;5048515;28;20568;-50
2022/10/06 13:04:35;;;;;;;3.55;1.10;;;18.50;31.80;;;;;;5028131;28;20496;-48
2022/10/06 13:07:15;;;;;;;3.90;0.80;;;18.40;31.80;;;;;;5048875;28;20031;-48
2022/10/06 13:09:41;;;;;;;3.55;0.80;;;18.40;30.90;;;;;;5026743;28;20056;-46
2022/10/06 13:12:30;;;;;;;4.40;1.15;;;18.40;30.90;;;;;;5048746;28;20025;-47
2022/10/06 13:15:09;;;;;;;3.85;1.45;;;18.40;30.30;;;;;;5047458;28;20033;-48
2022/10/06 13:17:39;;;;;;;7.32;1.02;;;18.40;29.70;;;;;;5027109;28;20034;-49